sensor_id;sensor_type;location;lat;lon;timestamp;pressure;altitude;pressure_sealevel;temperature;humidity
65666;BME280;52365;47.464;18.976;2022-12-29T00:00:10;100436.66;;;2.25;71.89
65666;BME280;52365;47.464;18.976;2022-12-29T00:00:46;100442.00;;;2.29;72.23
65666;BME280;52365;47.464;18.976;2022-12-29T00:01:22;100437.06;;;2.38;72.22
65666;BME280;52365;47.464;18.976;2022-12-29T00:01:58;100437.44;;;2.25;72.41
65666;BME280;52365;47.464;18.976;2022-12-29T00:02:34;100452.62;;;2.21;72.61
65666;BME280;52365;47.464;18.976;2022-12-29T00:03:10;100444.28;;;2.30;72.67
65666;BME280;52365;47.464;18.976;2022-12-29T00:03:46;100445.41;;;2.43;72.40
65666;BME280;52365;47.464;18.976;2022-12-29T00:04:22;100449.19;;;2.32;72.23
65666;BME280;52365;47.464;18.976;2022-12-29T00:04:59;100443.87;;;2.28;72.50
65666;BME280;52365;47.464;18.976;2022-12-29T00:05:35;100449.94;;;2.18;72.77
65666;BME280;52365;47.464;18.976;2022-12-29T00:06:11;100445.38;;;2.15;73.01
65666;BME280;52365;47.464;18.976;2022-12-29T00:06:47;100449.59;;;2.26;72.93
65666;BME280;52365;47.464;18.976;2022-12-29T00:07:24;100447.31;;;2.25;72.91
65666;BME280;52365;47.464;18.976;2022-12-29T00:08:00;100449.19;;;2.32;72.62
65666;BME280;52365;47.464;18.976;2022-12-29T00:08:36;100449.97;;;2.43;72.40
65666;BME280;52365;47.464;18.976;2022-12-29T00:09:16;100450.34;;;2.38;72.17
65666;BME280;52365;47.464;18.976;2022-12-29T00:09:52;100442.34;;;2.27;72.30
65666;BME280;52365;47.464;18.976;2022-12-29T00:10:28;100443.87;;;2.14;72.78
65666;BME280;52365;47.464;18.976;2022-12-29T00:11:15;100446.91;;;2.09;73.15
65666;BME280;52365;47.464;18.976;2022-12-29T00:11:52;100444.63;;;2.14;73.21
65666;BME280;52365;47.464;18.976;2022-12-29T00:12:28;100445.41;;;2.25;73.04
65666;BME280;52365;47.464;18.976;2022-12-29T00:13:24;100445.41;;;2.22;72.70
65666;BME280;52365;47.464;18.976;2022-12-29T00:14:18;100443.50;;;2.30;72.47
65666;BME280;52365;47.464;18.976;2022-12-29T00:15:13;100438.56;;;2.35;72.22
65666;BME280;52365;47.464;18.976;2022-12-29T00:16:08;100434.78;;;2.47;71.93
65666;BME280;52365;47.464;18.976;2022-12-29T00:16:45;100430.97;;;2.55;71.41
65666;BME280;52365;47.464;18.976;2022-12-29T00:17:21;100434.75;;;2.43;71.40
65666;BME280;52365;47.464;18.976;2022-12-29T00:17:57;100439.69;;;2.52;71.47
65666;BME280;52365;47.464;18.976;2022-12-29T00:18:33;100432.47;;;2.56;71.38
65666;BME280;52365;47.464;18.976;2022-12-29T00:19:10;100432.84;;;1.94;72.03
65666;BME280;52365;47.464;18.976;2022-12-29T00:20:06;100434.72;;;1.83;73.27
65666;BME280;52365;47.464;18.976;2022-12-29T00:21:01;100432.09;;;2.00;73.72
65666;BME280;52365;47.464;18.976;2022-12-29T00:21:55;100432.50;;;2.24;72.98
65666;BME280;52365;47.464;18.976;2022-12-29T00:22:50;100428.69;;;2.32;72.64
65666;BME280;52365;47.464;18.976;2022-12-29T00:23:45;100426.41;;;2.31;72.47
65666;BME280;52365;47.464;18.976;2022-12-29T00:24:39;100424.88;;;2.30;72.23
65666;BME280;52365;47.464;18.976;2022-12-29T00:25:36;100424.13;;;2.25;72.36
65666;BME280;52365;47.464;18.976;2022-12-29T00:26:30;100424.88;;;2.12;72.31
65666;BME280;52365;47.464;18.976;2022-12-29T00:27:26;100428.66;;;1.96;73.06
65666;BME280;52365;47.464;18.976;2022-12-29T00:28:21;100429.44;;;2.15;73.57
65666;BME280;52365;47.464;18.976;2022-12-29T00:29:16;100434.00;;;2.21;73.28
65666;BME280;52365;47.464;18.976;2022-12-29T00:30:17;100435.16;;;2.35;72.42
65666;BME280;52365;47.464;18.976;2022-12-29T00:31:11;100432.47;;;2.60;72.09
65666;BME280;52365;47.464;18.976;2022-12-29T00:32:09;100427.88;;;2.82;70.89
65666;BME280;52365;47.464;18.976;2022-12-29T00:33:15;100434.75;;;2.54;70.72
65666;BME280;52365;47.464;18.976;2022-12-29T00:34:11;100435.53;;;2.30;71.93
65666;BME280;52365;47.464;18.976;2022-12-29T00:35:09;100437.41;;;2.22;72.58
65666;BME280;52365;47.464;18.976;2022-12-29T00:35:51;100433.63;;;2.26;72.57
65666;BME280;52365;47.464;18.976;2022-12-29T00:36:32;100440.47;;;2.17;73.00
65666;BME280;52365;47.464;18.976;2022-12-29T00:37:10;100437.03;;;2.16;73.13
65666;BME280;52365;47.464;18.976;2022-12-29T00:37:47;100431.72;;;2.20;72.96
65666;BME280;52365;47.464;18.976;2022-12-29T00:38:46;100434.78;;;2.25;72.71
65666;BME280;52365;47.464;18.976;2022-12-29T00:39:56;100434.75;;;2.40;72.23
65666;BME280;52365;47.464;18.976;2022-12-29T00:40:50;100426.78;;;2.08;73.08
65666;BME280;52365;47.464;18.976;2022-12-29T00:41:45;100435.53;;;2.15;73.11
65666;BME280;52365;47.464;18.976;2022-12-29T00:42:40;100430.97;;;2.26;73.24
65666;BME280;52365;47.464;18.976;2022-12-29T00:43:34;100426.38;;;2.66;72.72
65666;BME280;52365;47.464;18.976;2022-12-29T00:44:29;100422.91;;;2.91;71.29
65666;BME280;52365;47.464;18.976;2022-12-29T00:45:05;100427.03;;;3.06;70.00
65666;BME280;52365;47.464;18.976;2022-12-29T00:45:41;100423.28;;;2.96;69.77
65666;BME280;52365;47.464;18.976;2022-12-29T00:46:17;100427.88;;;2.71;70.33
65666;BME280;52365;47.464;18.976;2022-12-29T00:46:53;100429.81;;;2.60;70.78
65666;BME280;52365;47.464;18.976;2022-12-29T00:47:29;100426.75;;;2.54;70.93
65666;BME280;52365;47.464;18.976;2022-12-29T00:48:05;100432.50;;;2.35;71.17
65666;BME280;52365;47.464;18.976;2022-12-29T00:48:41;100430.59;;;2.21;71.91
65666;BME280;52365;47.464;18.976;2022-12-29T00:49:36;100430.59;;;2.24;72.22
65666;BME280;52365;47.464;18.976;2022-12-29T00:50:12;100427.91;;;2.03;72.52
65666;BME280;52365;47.464;18.976;2022-12-29T00:50:48;100425.25;;;1.99;72.91
65666;BME280;52365;47.464;18.976;2022-12-29T00:51:24;100426.75;;;1.90;73.44
65666;BME280;52365;47.464;18.976;2022-12-29T00:52:03;100427.91;;;1.96;73.80
65666;BME280;52365;47.464;18.976;2022-12-29T00:52:40;100432.47;;;2.17;73.64
65666;BME280;52365;47.464;18.976;2022-12-29T00:53:16;100432.47;;;2.13;73.47
65666;BME280;52365;47.464;18.976;2022-12-29T00:53:52;100431.72;;;2.27;73.33
65666;BME280;52365;47.464;18.976;2022-12-29T00:54:29;100431.34;;;2.53;72.95
65666;BME280;52365;47.464;18.976;2022-12-29T00:55:06;100429.78;;;2.70;71.55
65666;BME280;52365;47.464;18.976;2022-12-29T00:55:42;100431.69;;;2.66;71.03
65666;BME280;52365;47.464;18.976;2022-12-29T00:56:18;100436.28;;;2.34;71.58
65666;BME280;52365;47.464;18.976;2022-12-29T00:56:54;100437.81;;;2.42;71.75
65666;BME280;52365;47.464;18.976;2022-12-29T00:57:30;100432.47;;;2.49;71.58
65666;BME280;52365;47.464;18.976;2022-12-29T00:58:06;100434.78;;;2.29;71.63
65666;BME280;52365;47.464;18.976;2022-12-29T00:58:42;100434.78;;;2.11;72.17
65666;BME280;52365;47.464;18.976;2022-12-29T00:59:18;100437.03;;;2.23;72.42
65666;BME280;52365;47.464;18.976;2022-12-29T00:59:55;100440.09;;;2.25;72.67
65666;BME280;52365;47.464;18.976;2022-12-29T01:00:31;100436.66;;;2.25;72.52
65666;BME280;52365;47.464;18.976;2022-12-29T01:01:08;100436.63;;;2.11;72.49
65666;BME280;52365;47.464;18.976;2022-12-29T01:01:45;100437.78;;;2.13;72.55
65666;BME280;52365;47.464;18.976;2022-12-29T01:02:21;100433.25;;;2.17;72.38
65666;BME280;52365;47.464;18.976;2022-12-29T01:02:57;100435.53;;;2.30;72.20
65666;BME280;52365;47.464;18.976;2022-12-29T01:03:34;100432.50;;;2.24;72.08
65666;BME280;52365;47.464;18.976;2022-12-29T01:04:11;100438.19;;;2.30;71.97
65666;BME280;52365;47.464;18.976;2022-12-29T01:04:47;100432.88;;;2.33;71.87
65666;BME280;52365;47.464;18.976;2022-12-29T01:05:23;100432.50;;;2.35;71.75
65666;BME280;52365;47.464;18.976;2022-12-29T01:06:01;100433.22;;;2.28;71.64
65666;BME280;52365;47.464;18.976;2022-12-29T01:06:39;100432.50;;;2.24;71.64
65666;BME280;52365;47.464;18.976;2022-12-29T01:07:15;100427.16;;;2.13;72.05
65666;BME280;52365;47.464;18.976;2022-12-29T01:07:51;100424.81;;;1.80;73.06
65666;BME280;52365;47.464;18.976;2022-12-29T01:08:28;100430.94;;;1.80;73.56
65666;BME280;52365;47.464;18.976;2022-12-29T01:09:05;100429.03;;;1.95;73.37
65666;BME280;52365;47.464;18.976;2022-12-29T01:10:00;100428.66;;;1.93;73.37
65666;BME280;52365;47.464;18.976;2022-12-29T01:10:45;100430.56;;;1.96;73.45
65666;BME280;52365;47.464;18.976;2022-12-29T01:11:21;100433.25;;;2.39;72.61
65666;BME280;52365;47.464;18.976;2022-12-29T01:11:58;100419.16;;;2.49;71.59
65666;BME280;52365;47.464;18.976;2022-12-29T01:12:34;100431.34;;;2.36;71.37
65666;BME280;52365;47.464;18.976;2022-12-29T01:13:16;100427.53;;;2.05;72.05
65666;BME280;52365;47.464;18.976;2022-12-29T01:13:52;100421.81;;;2.06;72.40
65666;BME280;52365;47.464;18.976;2022-12-29T01:14:28;100422.19;;;1.76;73.21
65666;BME280;52365;47.464;18.976;2022-12-29T01:15:04;100432.81;;;1.72;73.37
65666;BME280;52365;47.464;18.976;2022-12-29T01:15:41;100426.72;;;1.72;73.45
65666;BME280;52365;47.464;18.976;2022-12-29T01:16:17;100426.72;;;1.72;73.97
65666;BME280;52365;47.464;18.976;2022-12-29T01:16:54;100430.88;;;1.59;74.56
65666;BME280;52365;47.464;18.976;2022-12-29T01:17:30;100424.34;;;1.42;75.16
65666;BME280;52365;47.464;18.976;2022-12-29T01:18:06;100428.97;;;1.56;75.44
65666;BME280;52365;47.464;18.976;2022-12-29T01:18:42;100428.28;;;1.91;75.14
65666;BME280;52365;47.464;18.976;2022-12-29T01:19:19;100427.16;;;1.99;74.62
65666;BME280;52365;47.464;18.976;2022-12-29T01:19:55;100430.22;;;2.15;73.93
65666;BME280;52365;47.464;18.976;2022-12-29T01:20:31;100431.72;;;2.27;73.34
65666;BME280;52365;47.464;18.976;2022-12-29T01:21:07;100437.03;;;2.23;72.86
65666;BME280;52365;47.464;18.976;2022-12-29T01:21:43;100425.22;;;1.89;72.75
65666;BME280;52365;47.464;18.976;2022-12-29T01:22:20;100427.06;;;1.56;73.70
65666;BME280;52365;47.464;18.976;2022-12-29T01:22:56;100431.25;;;1.64;74.07
65666;BME280;52365;47.464;18.976;2022-12-29T01:23:32;100434.69;;;1.75;74.08
65666;BME280;52365;47.464;18.976;2022-12-29T01:24:08;100432.47;;;1.99;73.75
65666;BME280;52365;47.464;18.976;2022-12-29T01:24:44;100427.13;;;1.88;73.23
65666;BME280;52365;47.464;18.976;2022-12-29T01:25:20;100418.75;;;1.79;73.02
65666;BME280;52365;47.464;18.976;2022-12-29T01:25:56;100426.78;;;2.15;72.86
65666;BME280;52365;47.464;18.976;2022-12-29T01:26:32;100430.19;;;1.90;72.29
65666;BME280;52365;47.464;18.976;2022-12-29T01:27:09;100424.81;;;1.58;72.88
65666;BME280;52365;47.464;18.976;2022-12-29T01:27:45;100428.53;;;1.46;73.69
65666;BME280;52365;47.464;18.976;2022-12-29T01:28:22;100423.19;;;1.29;74.69
65666;BME280;52365;47.464;18.976;2022-12-29T01:28:58;100418.66;;;1.36;75.04
65666;BME280;52365;47.464;18.976;2022-12-29T01:29:34;100419.44;;;1.51;74.92
65666;BME280;52365;47.464;18.976;2022-12-29T01:30:10;100425.53;;;1.55;75.13
65666;BME280;52365;47.464;18.976;2022-12-29T01:30:46;100417.19;;;1.57;75.17
65666;BME280;52365;47.464;18.976;2022-12-29T01:31:22;100420.28;;;1.80;74.75
65666;BME280;52365;47.464;18.976;2022-12-29T01:31:58;100415.75;;;1.91;74.04
65666;BME280;52365;47.464;18.976;2022-12-29T01:32:34;100422.50;;;1.60;74.50
65666;BME280;52365;47.464;18.976;2022-12-29T01:33:10;100423.28;;;1.64;74.65
65666;BME280;52365;47.464;18.976;2022-12-29T01:33:46;100418.62;;;1.33;75.03
65666;BME280;52365;47.464;18.976;2022-12-29T01:34:22;100421.66;;;1.35;75.45
65666;BME280;52365;47.464;18.976;2022-12-29T01:34:58;100419.47;;;1.55;75.30
65666;BME280;52365;47.464;18.976;2022-12-29T01:35:34;100422.53;;;1.64;75.09
65666;BME280;52365;47.464;18.976;2022-12-29T01:36:13;100419.13;;;1.63;74.80
65666;BME280;52365;47.464;18.976;2022-12-29T01:36:49;100417.56;;;1.62;75.00
65666;BME280;52365;47.464;18.976;2022-12-29T01:37:25;100419.09;;;1.56;75.01
65666;BME280;52365;47.464;18.976;2022-12-29T01:38:01;100414.19;;;1.69;74.76
65666;BME280;52365;47.464;18.976;2022-12-29T01:38:38;100418.00;;;1.71;74.63
65666;BME280;52365;47.464;18.976;2022-12-29T01:39:14;100420.63;;;1.64;74.30
65666;BME280;52365;47.464;18.976;2022-12-29T01:39:50;100414.44;;;1.28;75.04
65666;BME280;52365;47.464;18.976;2022-12-29T01:40:26;100422.78;;;1.26;75.34
65666;BME280;52365;47.464;18.976;2022-12-29T01:41:03;100423.59;;;1.38;75.22
65666;BME280;52365;47.464;18.976;2022-12-29T01:41:40;100430.09;;;1.51;74.98
65666;BME280;52365;47.464;18.976;2022-12-29T01:42:18;100421.78;;;1.63;74.83
65666;BME280;52365;47.464;18.976;2022-12-29T01:42:54;100424.84;;;1.83;74.41
65666;BME280;52365;47.464;18.976;2022-12-29T01:44:57;100423.72;;;1.81;73.77
65666;BME280;52365;47.464;18.976;2022-12-29T01:45:33;100413.44;;;1.75;73.66
65666;BME280;52365;47.464;18.976;2022-12-29T01:46:51;100409.69;;;1.94;73.60
65666;BME280;52365;47.464;18.976;2022-12-29T01:47:32;100414.62;;;2.17;73.12
65666;BME280;52365;47.464;18.976;2022-12-29T01:48:10;100404.31;;;1.73;72.90
65666;BME280;52365;47.464;18.976;2022-12-29T01:48:48;100419.06;;;1.52;73.38
65666;BME280;52365;47.464;18.976;2022-12-29T01:49:27;100411.88;;;1.60;73.64
65666;BME280;52365;47.464;18.976;2022-12-29T01:50:32;100416.47;;;1.70;73.53
65666;BME280;52365;47.464;18.976;2022-12-29T01:51:09;100413.44;;;1.75;73.48
65666;BME280;52365;47.464;18.976;2022-12-29T01:51:57;100412.69;;;1.71;73.66
65666;BME280;52365;47.464;18.976;2022-12-29T01:52:40;100415.75;;;1.81;73.62
65666;BME280;52365;47.464;18.976;2022-12-29T01:53:22;100413.06;;;1.77;74.34
65666;BME280;52365;47.464;18.976;2022-12-29T01:54:05;100411.16;;;1.70;74.24
65666;BME280;52365;47.464;18.976;2022-12-29T01:54:51;100415.72;;;1.84;74.23
65666;BME280;52365;47.464;18.976;2022-12-29T01:55:33;100406.63;;;2.57;72.69
65666;BME280;52365;47.464;18.976;2022-12-29T01:56:12;100405.44;;;2.83;70.90
65666;BME280;52365;47.464;18.976;2022-12-29T01:56:52;100413.47;;;2.18;70.90
65666;BME280;52365;47.464;18.976;2022-12-29T01:57:33;100404.38;;;2.09;71.31
65666;BME280;52365;47.464;18.976;2022-12-29T01:58:12;100405.12;;;1.95;71.88
65666;BME280;52365;47.464;18.976;2022-12-29T01:58:56;100405.88;;;1.95;72.31
65666;BME280;52365;47.464;18.976;2022-12-29T01:59:39;100404.72;;;1.79;72.92
65666;BME280;52365;47.464;18.976;2022-12-29T02:00:16;100398.25;;;1.69;73.66
65666;BME280;52365;47.464;18.976;2022-12-29T02:00:52;100403.16;;;1.56;74.29
65666;BME280;52365;47.464;18.976;2022-12-29T02:01:28;100407.31;;;1.57;74.73
65666;BME280;52365;47.464;18.976;2022-12-29T02:02:05;100405.84;;;1.67;74.54
65666;BME280;52365;47.464;18.976;2022-12-29T02:02:45;100406.59;;;1.74;74.35
65666;BME280;52365;47.464;18.976;2022-12-29T02:03:24;100408.88;;;1.80;74.13
65666;BME280;52365;47.464;18.976;2022-12-29T02:04:02;100410.81;;;1.93;73.72
65666;BME280;52365;47.464;18.976;2022-12-29T02:04:41;100403.22;;;1.92;73.41
65666;BME280;52365;47.464;18.976;2022-12-29T02:06:15;100404.28;;;1.51;73.85
65666;BME280;52365;47.464;18.976;2022-12-29T02:06:56;100405.41;;;1.50;74.26
65666;BME280;52365;47.464;18.976;2022-12-29T02:07:33;100396.31;;;1.55;74.24
65666;BME280;52365;47.464;18.976;2022-12-29T02:08:11;100406.22;;;1.69;74.11
65666;BME280;52365;47.464;18.976;2022-12-29T02:08:50;100394.47;;;1.81;73.74
65666;BME280;52365;47.464;18.976;2022-12-29T02:09:26;100398.25;;;1.72;73.51
65666;BME280;52365;47.464;18.976;2022-12-29T02:10:03;100398.62;;;1.67;73.42
65666;BME280;52365;47.464;18.976;2022-12-29T02:10:40;100398.22;;;1.58;73.50
65666;BME280;52365;47.464;18.976;2022-12-29T02:11:18;100394.06;;;1.64;73.48
65666;BME280;52365;47.464;18.976;2022-12-29T02:11:55;100393.31;;;1.89;73.34
65666;BME280;52365;47.464;18.976;2022-12-29T02:12:32;100393.72;;;2.26;72.48
65666;BME280;52365;47.464;18.976;2022-12-29T02:13:08;100397.13;;;2.41;71.37
65666;BME280;52365;47.464;18.976;2022-12-29T02:13:44;100388.75;;;1.75;72.29
65666;BME280;52365;47.464;18.976;2022-12-29T02:14:20;100392.16;;;1.65;72.81
65666;BME280;52365;47.464;18.976;2022-12-29T02:15:00;100387.56;;;1.44;73.50
65666;BME280;52365;47.464;18.976;2022-12-29T02:17:52;100386.09;;;1.64;74.63
65666;BME280;52365;47.464;18.976;2022-12-29T02:22:22;100385.31;;;1.60;74.13
65666;BME280;52365;47.464;18.976;2022-12-29T02:23:30;100395.22;;;1.81;73.57
65666;BME280;52365;47.464;18.976;2022-12-29T02:26:12;100382.94;;;1.26;74.26
65666;BME280;52365;47.464;18.976;2022-12-29T02:27:01;100381.78;;;1.20;75.43
65666;BME280;52365;47.464;18.976;2022-12-29T02:30:03;100377.69;;;1.44;75.74
65666;BME280;52365;47.464;18.976;2022-12-29T02:30:59;100369.75;;;1.55;75.37
65666;BME280;52365;47.464;18.976;2022-12-29T02:32:03;100372.78;;;1.50;75.42
65666;BME280;52365;47.464;18.976;2022-12-29T02:32:59;100370.81;;;1.29;75.88
65666;BME280;52365;47.464;18.976;2022-12-29T02:33:45;100367.03;;;1.34;76.05
65666;BME280;52365;47.464;18.976;2022-12-29T02:37:30;100376.22;;;1.54;75.40
65666;BME280;52365;47.464;18.976;2022-12-29T02:40:06;100372.00;;;1.46;75.37
65666;BME280;52365;47.464;18.976;2022-12-29T02:40:58;100381.00;;;1.16;76.06
65666;BME280;52365;47.464;18.976;2022-12-29T02:42:51;100368.47;;;1.10;77.01
65666;BME280;52365;47.464;18.976;2022-12-29T02:43:54;100359.41;;;1.18;76.97
65666;BME280;52365;47.464;18.976;2022-12-29T02:45:53;100362.97;;;2.00;75.24
65666;BME280;52365;47.464;18.976;2022-12-29T02:46:37;100365.59;;;1.61;74.46
65666;BME280;52365;47.464;18.976;2022-12-29T02:47:35;100370.84;;;1.33;75.04
65666;BME280;52365;47.464;18.976;2022-12-29T02:48:28;100365.13;;;1.31;75.53
65666;BME280;52365;47.464;18.976;2022-12-29T02:49:15;100362.06;;;1.18;75.85
65666;BME280;52365;47.464;18.976;2022-12-29T02:50:06;100367.41;;;1.36;75.72
65666;BME280;52365;47.464;18.976;2022-12-29T02:50:52;100367.06;;;1.41;75.48
65666;BME280;52365;47.464;18.976;2022-12-29T02:51:35;100368.53;;;1.31;75.41
65666;BME280;52365;47.464;18.976;2022-12-29T02:52:22;100360.94;;;1.26;75.48
65666;BME280;52365;47.464;18.976;2022-12-29T02:53:18;100369.31;;;1.35;75.44
65666;BME280;52365;47.464;18.976;2022-12-29T02:54:19;100354.84;;;1.22;75.86
65666;BME280;52365;47.464;18.976;2022-12-29T02:55:14;100365.19;;;1.41;75.81
65666;BME280;52365;47.464;18.976;2022-12-29T02:55:51;100364.44;;;1.55;75.33
65666;BME280;52365;47.464;18.976;2022-12-29T02:56:28;100372.81;;;1.82;74.69
65666;BME280;52365;47.464;18.976;2022-12-29T02:57:12;100362.94;;;1.61;74.50
65666;BME280;52365;47.464;18.976;2022-12-29T02:58:12;100366.31;;;1.44;74.67
65666;BME280;52365;47.464;18.976;2022-12-29T02:58:49;100363.97;;;1.24;75.52
65666;BME280;52365;47.464;18.976;2022-12-29T02:59:25;100365.91;;;1.38;75.72
65666;BME280;52365;47.464;18.976;2022-12-29T03:00:08;100365.13;;;1.23;75.75
65666;BME280;52365;47.464;18.976;2022-12-29T03:03:56;100358.44;;;0.74;77.77
65666;BME280;52365;47.464;18.976;2022-12-29T03:08:04;100357.91;;;1.20;77.34
65666;BME280;52365;47.464;18.976;2022-12-29T03:08:55;100366.31;;;1.37;77.10
65666;BME280;52365;47.464;18.976;2022-12-29T03:10:35;100362.53;;;1.66;76.06
65666;BME280;52365;47.464;18.976;2022-12-29T03:11:14;100357.22;;;1.45;75.97
65666;BME280;52365;47.464;18.976;2022-12-29T03:12:29;100366.28;;;1.30;76.13
65666;BME280;52365;47.464;18.976;2022-12-29T03:14:12;100355.28;;;1.28;76.31
65666;BME280;52365;47.464;18.976;2022-12-29T03:15:07;100354.19;;;1.57;75.95
65666;BME280;52365;47.464;18.976;2022-12-29T03:17:20;100361.69;;;1.16;77.08
65666;BME280;52365;47.464;18.976;2022-12-29T03:17:58;100355.16;;;0.99;77.59
65666;BME280;52365;47.464;18.976;2022-12-29T03:19:34;100355.47;;;0.80;78.63
65666;BME280;52365;47.464;18.976;2022-12-29T03:20:18;100353.25;;;0.99;78.56
65666;BME280;52365;47.464;18.976;2022-12-29T03:21:02;100352.63;;;1.35;78.12
65666;BME280;52365;47.464;18.976;2022-12-29T03:21:48;100354.84;;;1.15;77.81
65666;BME280;52365;47.464;18.976;2022-12-29T03:22:47;100358.63;;;1.17;77.63
65666;BME280;52365;47.464;18.976;2022-12-29T03:23:26;100349.53;;;1.11;77.63
65666;BME280;52365;47.464;18.976;2022-12-29T03:24:03;100351.91;;;1.45;77.33
65666;BME280;52365;47.464;18.976;2022-12-29T03:24:43;100346.94;;;1.33;77.11
65666;BME280;52365;47.464;18.976;2022-12-29T03:25:28;100347.62;;;1.12;77.42
65666;BME280;52365;47.464;18.976;2022-12-29T03:26:09;100344.16;;;1.00;77.83
65666;BME280;52365;47.464;18.976;2022-12-29T03:26:47;100351.78;;;1.09;77.88
65666;BME280;52365;47.464;18.976;2022-12-29T03:27:34;100339.56;;;0.87;78.18
65666;BME280;52365;47.464;18.976;2022-12-29T03:28:17;100337.38;;;1.14;78.35
65666;BME280;52365;47.464;18.976;2022-12-29T03:28:55;100341.56;;;1.18;77.69
65666;BME280;52365;47.464;18.976;2022-12-29T03:29:45;100330.94;;;1.18;77.71
65666;BME280;52365;47.464;18.976;2022-12-29T03:30:23;100335.47;;;1.04;77.90
65666;BME280;52365;47.464;18.976;2022-12-29T03:31:00;100337.28;;;0.82;78.37
65666;BME280;52365;47.464;18.976;2022-12-29T03:31:40;100339.53;;;0.83;78.73
65666;BME280;52365;47.464;18.976;2022-12-29T03:32:19;100333.59;;;1.18;78.38
65666;BME280;52365;47.464;18.976;2022-12-29T03:32:59;100330.97;;;1.22;78.04
65666;BME280;52365;47.464;18.976;2022-12-29T03:33:37;100337.50;;;1.46;77.38
65666;BME280;52365;47.464;18.976;2022-12-29T03:34:15;100327.94;;;1.16;77.44
65666;BME280;52365;47.464;18.976;2022-12-29T03:34:53;100337.78;;;1.12;77.39
65666;BME280;52365;47.464;18.976;2022-12-29T03:35:34;100336.59;;;1.10;77.73
65666;BME280;52365;47.464;18.976;2022-12-29T03:37:18;100331.41;;;1.42;76.87
65666;BME280;52365;47.464;18.976;2022-12-29T03:38:53;100337.47;;;1.39;76.83
65666;BME280;52365;47.464;18.976;2022-12-29T03:39:31;100332.50;;;1.23;77.23
65666;BME280;52365;47.464;18.976;2022-12-29T03:40:08;100342.25;;;0.90;77.68
65666;BME280;52365;47.464;18.976;2022-12-29T03:41:06;100334.38;;;1.15;77.74
65666;BME280;52365;47.464;18.976;2022-12-29T03:41:44;100330.19;;;1.18;77.56
65666;BME280;52365;47.464;18.976;2022-12-29T03:42:24;100332.88;;;1.25;77.49
65666;BME280;52365;47.464;18.976;2022-12-29T03:43:01;100340.88;;;1.43;77.22
65666;BME280;52365;47.464;18.976;2022-12-29T03:43:38;100338.56;;;1.31;76.91
65666;BME280;52365;47.464;18.976;2022-12-29T03:44:14;100333.69;;;1.47;76.84
65666;BME280;52365;47.464;18.976;2022-12-29T03:44:54;100323.88;;;1.94;76.05
65666;BME280;52365;47.464;18.976;2022-12-29T03:45:31;100326.91;;;1.82;75.78
65666;BME280;52365;47.464;18.976;2022-12-29T03:46:07;100329.91;;;1.62;75.23
65666;BME280;52365;47.464;18.976;2022-12-29T03:46:43;100327.22;;;1.48;76.01
65666;BME280;52365;47.464;18.976;2022-12-29T03:47:19;100326.88;;;1.49;75.82
65666;BME280;52365;47.464;18.976;2022-12-29T03:47:55;100322.66;;;1.31;76.08
65666;BME280;52365;47.464;18.976;2022-12-29T03:48:32;100329.53;;;1.49;76.36
65666;BME280;52365;47.464;18.976;2022-12-29T03:49:08;100334.44;;;1.37;76.60
65666;BME280;52365;47.464;18.976;2022-12-29T03:49:44;100325.28;;;1.16;76.74
65666;BME280;52365;47.464;18.976;2022-12-29T03:50:20;100322.25;;;1.14;77.05
65666;BME280;52365;47.464;18.976;2022-12-29T03:50:56;100321.87;;;1.19;77.11
65666;BME280;52365;47.464;18.976;2022-12-29T03:51:32;100323.38;;;1.20;77.17
65666;BME280;52365;47.464;18.976;2022-12-29T03:52:08;100324.56;;;1.48;76.85
65666;BME280;52365;47.464;18.976;2022-12-29T03:52:45;100323.06;;;1.47;76.63
65666;BME280;52365;47.464;18.976;2022-12-29T03:53:21;100329.50;;;1.42;76.38
65666;BME280;52365;47.464;18.976;2022-12-29T03:53:57;100332.88;;;1.25;76.56
65666;BME280;52365;47.464;18.976;2022-12-29T03:54:33;100333.62;;;1.25;76.62
65666;BME280;52365;47.464;18.976;2022-12-29T03:55:09;100330.59;;;1.20;76.82
65666;BME280;52365;47.464;18.976;2022-12-29T03:55:45;100340.03;;;1.07;77.05
65666;BME280;52365;47.464;18.976;2022-12-29T03:56:21;100341.16;;;1.02;77.40
65666;BME280;52365;47.464;18.976;2022-12-29T03:56:57;100335.81;;;0.95;77.80
65666;BME280;52365;47.464;18.976;2022-12-29T03:57:33;100336.72;;;1.42;77.45
65666;BME280;52365;47.464;18.976;2022-12-29T03:58:09;100328.31;;;1.22;77.21
65666;BME280;52365;47.464;18.976;2022-12-29T03:58:45;100340.91;;;1.54;76.84
65666;BME280;52365;47.464;18.976;2022-12-29T03:59:21;100330.56;;;1.16;76.86
65666;BME280;52365;47.464;18.976;2022-12-29T03:59:57;100334.75;;;1.10;77.16
65666;BME280;52365;47.464;18.976;2022-12-29T04:00:33;100328.31;;;1.25;77.48
65666;BME280;52365;47.464;18.976;2022-12-29T04:01:10;100336.00;;;1.70;76.56
65666;BME280;52365;47.464;18.976;2022-12-29T04:01:46;100336.75;;;1.67;75.97
65666;BME280;52365;47.464;18.976;2022-12-29T04:02:22;100334.44;;;1.37;76.19
65666;BME280;52365;47.464;18.976;2022-12-29T04:02:59;100332.16;;;1.39;76.29
65666;BME280;52365;47.464;18.976;2022-12-29T04:03:35;100333.72;;;1.54;76.05
65666;BME280;52365;47.464;18.976;2022-12-29T04:04:11;100332.94;;;1.46;75.91
65666;BME280;52365;47.464;18.976;2022-12-29T04:04:47;100328.37;;;1.36;76.09
65666;BME280;52365;47.464;18.976;2022-12-29T04:05:23;100327.12;;;1.09;76.64
65666;BME280;52365;47.464;18.976;2022-12-29T04:05:59;100330.59;;;1.27;76.69
65666;BME280;52365;47.464;18.976;2022-12-29T04:06:35;100334.41;;;1.30;76.72
65666;BME280;52365;47.464;18.976;2022-12-29T04:07:11;100324.56;;;1.44;76.39
65666;BME280;52365;47.464;18.976;2022-12-29T04:07:48;100336.00;;;1.59;76.07